sensor_id;sensor_type;location;lat;lon;timestamp;P1;durP1;ratioP1;P2;durP2;ratioP2
60492;SDS011;46341;51.290;-2.474;2022-08-23T00:01:34;0.90;;;0.90;;
60492;SDS011;46341;51.290;-2.474;2022-08-23T00:04:04;1.25;;;1.00;;
60492;SDS011;46341;51.290;-2.474;2022-08-23T00:06:30;1.00;;;1.00;;
60492;SDS011;46341;51.290;-2.474;2022-08-23T00:08:57;0.50;;;0.50;;
60492;SDS011;46341;51.290;-2.474;2022-08-23T00:11:32;0.60;;;0.60;;
60492;SDS011;46341;51.290;-2.474;2022-08-23T00:14:00;0.47;;;0.47;;
60492;SDS011;46341;51.290;-2.474;2022-08-23T00:16:27;0.40;;;0.40;;
60492;SDS011;46341;51.290;-2.474;2022-08-23T00:18:53;0.52;;;0.52;;
60492;SDS011;46341;51.290;-2.474;2022-08-23T00:21:20;0.93;;;0.43;;
60492;SDS011;46341;51.290;-2.474;2022-08-23T00:23:47;0.30;;;0.30;;
60492;SDS011;46341;51.290;-2.474;2022-08-23T00:26:13;1.02;;;0.40;;
60492;SDS011;46341;51.290;-2.474;2022-08-23T00:28:39;0.57;;;0.20;;
60492;SDS011;46341;51.290;-2.474;2022-08-23T00:31:06;0.32;;;0.20;;
60492;SDS011;46341;51.290;-2.474;2022-08-23T00:33:32;0.77;;;0.40;;
60492;SDS011;46341;51.290;-2.474;2022-08-23T00:35:59;1.23;;;0.50;;
60492;SDS011;46341;51.290;-2.474;2022-08-23T00:38:25;0.52;;;0.40;;
60492;SDS011;46341;51.290;-2.474;2022-08-23T00:41:00;2.67;;;0.40;;
60492;SDS011;46341;51.290;-2.474;2022-08-23T00:43:34;0.63;;;0.30;;
60492;SDS011;46341;51.290;-2.474;2022-08-23T00:46:32;1.20;;;0.50;;
60492;SDS011;46341;51.290;-2.474;2022-08-23T00:49:20;0.45;;;0.30;;
60492;SDS011;46341;51.290;-2.474;2022-08-23T00:54:24;0.30;;;0.30;;
60492;SDS011;46341;51.290;-2.474;2022-08-23T00:56:53;0.85;;;0.40;;
60492;SDS011;46341;51.290;-2.474;2022-08-23T00:59:20;0.77;;;0.52;;
60492;SDS011;46341;51.290;-2.474;2022-08-23T01:01:47;1.05;;;0.60;;
60492;SDS011;46341;51.290;-2.474;2022-08-23T01:06:53;1.42;;;0.68;;
60492;SDS011;46341;51.290;-2.474;2022-08-23T01:09:21;1.08;;;1.08;;
60492;SDS011;46341;51.290;-2.474;2022-08-23T01:11:50;1.85;;;0.85;;
60492;SDS011;46341;51.290;-2.474;2022-08-23T01:14:21;1.70;;;1.15;;
60492;SDS011;46341;51.290;-2.474;2022-08-23T01:19:29;2.42;;;2.20;;
60492;SDS011;46341;51.290;-2.474;2022-08-23T01:24:27;2.10;;;1.90;;
60492;SDS011;46341;51.290;-2.474;2022-08-23T01:27:14;2.20;;;2.10;;
60492;SDS011;46341;51.290;-2.474;2022-08-23T01:29:40;2.58;;;2.33;;
60492;SDS011;46341;51.290;-2.474;2022-08-23T01:32:07;3.03;;;2.83;;
60492;SDS011;46341;51.290;-2.474;2022-08-23T01:34:34;2.45;;;2.35;;
60492;SDS011;46341;51.290;-2.474;2022-08-23T01:37:09;3.58;;;3.28;;
60492;SDS011;46341;51.290;-2.474;2022-08-23T01:39:36;3.13;;;2.93;;
60492;SDS011;46341;51.290;-2.474;2022-08-23T01:42:03;2.83;;;2.63;;
60492;SDS011;46341;51.290;-2.474;2022-08-23T01:44:33;3.05;;;2.85;;
60492;SDS011;46341;51.290;-2.474;2022-08-23T01:47:00;3.28;;;3.08;;
60492;SDS011;46341;51.290;-2.474;2022-08-23T01:49:26;2.95;;;2.75;;
60492;SDS011;46341;51.290;-2.474;2022-08-23T01:51:53;2.78;;;2.60;;
60492;SDS011;46341;51.290;-2.474;2022-08-23T01:54:20;3.13;;;2.88;;
60492;SDS011;46341;51.290;-2.474;2022-08-23T01:56:47;3.33;;;3.13;;
60492;SDS011;46341;51.290;-2.474;2022-08-23T01:59:14;3.05;;;2.85;;
60492;SDS011;46341;51.290;-2.474;2022-08-23T02:01:40;2.95;;;2.75;;
60492;SDS011;46341;51.290;-2.474;2022-08-23T02:04:07;4.07;;;2.83;;
60492;SDS011;46341;51.290;-2.474;2022-08-23T02:06:33;2.97;;;2.70;;
60492;SDS011;46341;51.290;-2.474;2022-08-23T02:09:00;2.83;;;2.72;;
60492;SDS011;46341;51.290;-2.474;2022-08-23T02:11:33;3.00;;;2.78;;
60492;SDS011;46341;51.290;-2.474;2022-08-23T02:14:02;2.72;;;2.53;;
60492;SDS011;46341;51.290;-2.474;2022-08-23T02:16:32;4.03;;;2.47;;
60492;SDS011;46341;51.290;-2.474;2022-08-23T02:19:01;3.20;;;2.70;;
60492;SDS011;46341;51.290;-2.474;2022-08-23T02:21:28;4.30;;;2.65;;
60492;SDS011;46341;51.290;-2.474;2022-08-23T02:23:58;2.80;;;2.60;;
60492;SDS011;46341;51.290;-2.474;2022-08-23T02:26:25;2.78;;;2.38;;
60492;SDS011;46341;51.290;-2.474;2022-08-23T02:28:56;3.22;;;2.90;;
60492;SDS011;46341;51.290;-2.474;2022-08-23T02:31:23;3.13;;;2.80;;
60492;SDS011;46341;51.290;-2.474;2022-08-23T02:33:52;2.50;;;2.30;;
60492;SDS011;46341;51.290;-2.474;2022-08-23T02:36:18;2.70;;;2.45;;
60492;SDS011;46341;51.290;-2.474;2022-08-23T02:38:50;2.63;;;2.25;;
60492;SDS011;46341;51.290;-2.474;2022-08-23T02:41:16;2.70;;;2.42;;
60492;SDS011;46341;51.290;-2.474;2022-08-23T02:43:43;4.05;;;2.20;;
60492;SDS011;46341;51.290;-2.474;2022-08-23T02:46:09;2.88;;;2.53;;
60492;SDS011;46341;51.290;-2.474;2022-08-23T02:48:36;2.67;;;2.30;;
60492;SDS011;46341;51.290;-2.474;2022-08-23T02:51:04;2.55;;;2.38;;
60492;SDS011;46341;51.290;-2.474;2022-08-23T02:53:31;3.53;;;2.95;;
60492;SDS011;46341;51.290;-2.474;2022-08-23T02:55:58;6.15;;;2.83;;
60492;SDS011;46341;51.290;-2.474;2022-08-23T02:58:25;4.35;;;2.80;;
60492;SDS011;46341;51.290;-2.474;2022-08-23T03:00:52;2.95;;;2.42;;
60492;SDS011;46341;51.290;-2.474;2022-08-23T03:03:19;3.72;;;2.78;;
60492;SDS011;46341;51.290;-2.474;2022-08-23T03:05:47;3.10;;;2.90;;
60492;SDS011;46341;51.290;-2.474;2022-08-23T03:08:14;2.88;;;2.65;;
60492;SDS011;46341;51.290;-2.474;2022-08-23T03:10:41;4.05;;;2.88;;
60492;SDS011;46341;51.290;-2.474;2022-08-23T03:13:08;3.25;;;2.95;;
60492;SDS011;46341;51.290;-2.474;2022-08-23T03:15:34;3.45;;;3.15;;
60492;SDS011;46341;51.290;-2.474;2022-08-23T03:18:01;6.03;;;3.20;;
60492;SDS011;46341;51.290;-2.474;2022-08-23T03:20:28;5.55;;;3.35;;
60492;SDS011;46341;51.290;-2.474;2022-08-23T03:22:54;3.33;;;3.05;;
60492;SDS011;46341;51.290;-2.474;2022-08-23T03:25:21;5.50;;;3.53;;
60492;SDS011;46341;51.290;-2.474;2022-08-23T03:27:47;4.80;;;3.28;;
60492;SDS011;46341;51.290;-2.474;2022-08-23T03:30:14;6.60;;;3.55;;
60492;SDS011;46341;51.290;-2.474;2022-08-23T03:32:45;5.97;;;3.35;;
60492;SDS011;46341;51.290;-2.474;2022-08-23T03:35:14;5.05;;;3.13;;
60492;SDS011;46341;51.290;-2.474;2022-08-23T03:37:41;6.20;;;3.67;;
60492;SDS011;46341;51.290;-2.474;2022-08-23T03:40:07;4.65;;;3.58;;
60492;SDS011;46341;51.290;-2.474;2022-08-23T03:42:34;5.47;;;3.40;;
60492;SDS011;46341;51.290;-2.474;2022-08-23T03:45:00;5.93;;;3.63;;
60492;SDS011;46341;51.290;-2.474;2022-08-23T03:47:28;4.32;;;3.92;;
60492;SDS011;46341;51.290;-2.474;2022-08-23T03:49:54;5.13;;;4.00;;
60492;SDS011;46341;51.290;-2.474;2022-08-23T03:52:22;6.18;;;3.50;;
60492;SDS011;46341;51.290;-2.474;2022-08-23T03:54:49;4.15;;;3.78;;
60492;SDS011;46341;51.290;-2.474;2022-08-23T03:57:15;5.63;;;4.30;;
60492;SDS011;46341;51.290;-2.474;2022-08-23T03:59:41;5.20;;;3.97;;
60492;SDS011;46341;51.290;-2.474;2022-08-23T04:02:08;5.40;;;4.25;;
60492;SDS011;46341;51.290;-2.474;2022-08-23T04:04:36;6.45;;;3.88;;
60492;SDS011;46341;51.290;-2.474;2022-08-23T04:07:03;7.68;;;4.25;;
60492;SDS011;46341;51.290;-2.474;2022-08-23T04:09:29;4.72;;;4.25;;
60492;SDS011;46341;51.290;-2.474;2022-08-23T04:11:56;5.13;;;4.00;;
60492;SDS011;46341;51.290;-2.474;2022-08-23T04:14:23;4.85;;;4.15;;
60492;SDS011;46341;51.290;-2.474;2022-08-23T04:16:50;5.72;;;4.35;;
60492;SDS011;46341;51.290;-2.474;2022-08-23T04:19:17;5.85;;;4.07;;
60492;SDS011;46341;51.290;-2.474;2022-08-23T04:21:47;5.65;;;3.90;;
60492;SDS011;46341;51.290;-2.474;2022-08-23T04:24:14;5.85;;;4.05;;
60492;SDS011;46341;51.290;-2.474;2022-08-23T04:26:41;5.57;;;4.07;;
60492;SDS011;46341;51.290;-2.474;2022-08-23T04:29:08;5.63;;;4.40;;
60492;SDS011;46341;51.290;-2.474;2022-08-23T04:31:49;5.20;;;3.67;;
60492;SDS011;46341;51.290;-2.474;2022-08-23T04:34:16;3.95;;;3.65;;
60492;SDS011;46341;51.290;-2.474;2022-08-23T04:36:45;6.05;;;4.05;;
60492;SDS011;46341;51.290;-2.474;2022-08-23T04:39:20;6.25;;;3.85;;
60492;SDS011;46341;51.290;-2.474;2022-08-23T04:41:47;4.07;;;3.70;;
60492;SDS011;46341;51.290;-2.474;2022-08-23T04:44:32;7.63;;;3.85;;
60492;SDS011;46341;51.290;-2.474;2022-08-23T04:46:58;5.75;;;4.18;;
60492;SDS011;46341;51.290;-2.474;2022-08-23T04:49:25;5.70;;;4.45;;
60492;SDS011;46341;51.290;-2.474;2022-08-23T04:51:51;5.05;;;3.63;;
60492;SDS011;46341;51.290;-2.474;2022-08-23T04:54:19;4.63;;;3.90;;
60492;SDS011;46341;51.290;-2.474;2022-08-23T04:56:47;5.88;;;3.78;;
60492;SDS011;46341;51.290;-2.474;2022-08-23T04:59:17;5.75;;;3.95;;
60492;SDS011;46341;51.290;-2.474;2022-08-23T05:01:43;5.10;;;3.85;;
60492;SDS011;46341;51.290;-2.474;2022-08-23T05:04:10;6.00;;;3.78;;
60492;SDS011;46341;51.290;-2.474;2022-08-23T05:06:37;8.00;;;3.95;;
60492;SDS011;46341;51.290;-2.474;2022-08-23T05:09:03;5.90;;;3.73;;
60492;SDS011;46341;51.290;-2.474;2022-08-23T05:11:30;5.63;;;4.28;;
60492;SDS011;46341;51.290;-2.474;2022-08-23T05:13:56;6.22;;;4.70;;
60492;SDS011;46341;51.290;-2.474;2022-08-23T05:16:23;5.30;;;4.18;;
60492;SDS011;46341;51.290;-2.474;2022-08-23T05:18:50;6.50;;;4.32;;
60492;SDS011;46341;51.290;-2.474;2022-08-23T05:21:18;5.93;;;5.03;;
60492;SDS011;46341;51.290;-2.474;2022-08-23T05:23:44;4.38;;;3.97;;
60492;SDS011;46341;51.290;-2.474;2022-08-23T05:26:20;9.05;;;4.25;;
60492;SDS011;46341;51.290;-2.474;2022-08-23T05:28:47;7.57;;;4.57;;
60492;SDS011;46341;51.290;-2.474;2022-08-23T05:31:17;6.07;;;4.63;;
60492;SDS011;46341;51.290;-2.474;2022-08-23T05:33:45;5.03;;;3.83;;
60492;SDS011;46341;51.290;-2.474;2022-08-23T05:36:12;6.60;;;4.85;;
60492;SDS011;46341;51.290;-2.474;2022-08-23T05:38:39;6.30;;;4.78;;
60492;SDS011;46341;51.290;-2.474;2022-08-23T05:41:06;6.75;;;4.60;;
60492;SDS011;46341;51.290;-2.474;2022-08-23T05:43:33;5.40;;;4.88;;
60492;SDS011;46341;51.290;-2.474;2022-08-23T05:46:04;5.82;;;4.32;;
60492;SDS011;46341;51.290;-2.474;2022-08-23T05:48:36;7.57;;;4.45;;
60492;SDS011;46341;51.290;-2.474;2022-08-23T05:51:07;7.22;;;4.28;;
60492;SDS011;46341;51.290;-2.474;2022-08-23T05:53:33;6.00;;;4.30;;
60492;SDS011;46341;51.290;-2.474;2022-08-23T05:58:42;5.47;;;4.35;;
60492;SDS011;46341;51.290;-2.474;2022-08-23T06:01:09;6.55;;;4.03;;
60492;SDS011;46341;51.290;-2.474;2022-08-23T06:03:36;7.38;;;4.80;;
60492;SDS011;46341;51.290;-2.474;2022-08-23T06:06:02;4.75;;;4.32;;
60492;SDS011;46341;51.290;-2.474;2022-08-23T06:08:29;5.77;;;4.10;;
60492;SDS011;46341;51.290;-2.474;2022-08-23T06:11:03;6.32;;;4.40;;
60492;SDS011;46341;51.290;-2.474;2022-08-23T06:13:30;6.75;;;4.43;;
60492;SDS011;46341;51.290;-2.474;2022-08-23T06:15:57;5.37;;;3.80;;
60492;SDS011;46341;51.290;-2.474;2022-08-23T06:18:24;6.18;;;3.95;;
60492;SDS011;46341;51.290;-2.474;2022-08-23T06:21:25;3.80;;;3.30;;
60492;SDS011;46341;51.290;-2.474;2022-08-23T06:23:45;4.97;;;3.53;;
60492;SDS011;46341;51.290;-2.474;2022-08-23T06:26:17;3.30;;;3.00;;
60492;SDS011;46341;51.290;-2.474;2022-08-23T06:28:44;4.07;;;3.10;;
60492;SDS011;46341;51.290;-2.474;2022-08-23T06:31:17;3.97;;;2.95;;
60492;SDS011;46341;51.290;-2.474;2022-08-23T06:34:07;5.40;;;3.00;;
60492;SDS011;46341;51.290;-2.474;2022-08-23T06:39:03;3.95;;;2.60;;
60492;SDS011;46341;51.290;-2.474;2022-08-23T06:41:29;3.38;;;2.50;;
60492;SDS011;46341;51.290;-2.474;2022-08-23T06:43:56;2.90;;;2.60;;
60492;SDS011;46341;51.290;-2.474;2022-08-23T06:46:23;5.28;;;2.72;;
60492;SDS011;46341;51.290;-2.474;2022-08-23T06:48:53;3.10;;;2.28;;
60492;SDS011;46341;51.290;-2.474;2022-08-23T06:53:46;2.97;;;2.60;;
60492;SDS011;46341;51.290;-2.474;2022-08-23T06:56:12;4.32;;;2.58;;
60492;SDS011;46341;51.290;-2.474;2022-08-23T06:58:39;4.00;;;3.00;;
60492;SDS011;46341;51.290;-2.474;2022-08-23T07:01:16;4.75;;;2.75;;
60492;SDS011;46341;51.290;-2.474;2022-08-23T07:04:04;2.80;;;2.25;;
60492;SDS011;46341;51.290;-2.474;2022-08-23T07:06:31;2.70;;;1.88;;
60492;SDS011;46341;51.290;-2.474;2022-08-23T07:08:57;2.88;;;2.30;;
60492;SDS011;46341;51.290;-2.474;2022-08-23T07:11:24;4.18;;;2.40;;
60492;SDS011;46341;51.290;-2.474;2022-08-23T07:13:51;3.58;;;2.15;;
60492;SDS011;46341;51.290;-2.474;2022-08-23T07:16:18;2.75;;;1.98;;
60492;SDS011;46341;51.290;-2.474;2022-08-23T07:18:45;7.05;;;2.80;;
60492;SDS011;46341;51.290;-2.474;2022-08-23T07:21:11;2.60;;;2.38;;
60492;SDS011;46341;51.290;-2.474;2022-08-23T07:23:38;5.22;;;2.30;;
60492;SDS011;46341;51.290;-2.474;2022-08-23T07:26:11;2.30;;;2.10;;
60492;SDS011;46341;51.290;-2.474;2022-08-23T07:28:38;3.22;;;1.73;;
60492;SDS011;46341;51.290;-2.474;2022-08-23T07:31:06;2.97;;;1.98;;
60492;SDS011;46341;51.290;-2.474;2022-08-23T07:33:39;3.20;;;2.20;;
60492;SDS011;46341;51.290;-2.474;2022-08-23T07:36:06;2.03;;;1.70;;
60492;SDS011;46341;51.290;-2.474;2022-08-23T07:38:33;1.20;;;1.15;;
60492;SDS011;46341;51.290;-2.474;2022-08-23T07:43:26;1.58;;;1.48;;
60492;SDS011;46341;51.290;-2.474;2022-08-23T07:45:53;1.90;;;1.50;;
60492;SDS011;46341;51.290;-2.474;2022-08-23T07:48:19;2.13;;;1.10;;
60492;SDS011;46341;51.290;-2.474;2022-08-23T07:51:07;0.88;;;0.80;;
60492;SDS011;46341;51.290;-2.474;2022-08-23T07:53:35;0.77;;;0.60;;
60492;SDS011;46341;51.290;-2.474;2022-08-23T07:56:04;0.80;;;0.30;;
60492;SDS011;46341;51.290;-2.474;2022-08-23T07:58:30;0.40;;;0.30;;
60492;SDS011;46341;51.290;-2.474;2022-08-23T08:01:07;0.15;;;0.15;;
60492;SDS011;46341;51.290;-2.474;2022-08-23T08:03:33;0.30;;;0.20;;
60492;SDS011;46341;51.290;-2.474;2022-08-23T08:06:04;2.60;;;0.20;;
60492;SDS011;46341;51.290;-2.474;2022-08-23T08:08:31;0.65;;;0.20;;
60492;SDS011;46341;51.290;-2.474;2022-08-23T08:10:58;0.00;;;0.00;;
60492;SDS011;46341;51.290;-2.474;2022-08-23T08:13:24;0.00;;;0.00;;
60492;SDS011;46341;51.290;-2.474;2022-08-23T08:15:50;0.10;;;0.00;;
60492;SDS011;46341;51.290;-2.474;2022-08-23T08:18:17;0.10;;;0.10;;
60492;SDS011;46341;51.290;-2.474;2022-08-23T08:20:44;0.20;;;0.10;;
60492;SDS011;46341;51.290;-2.474;2022-08-23T08:23:10;0.30;;;0.10;;
60492;SDS011;46341;51.290;-2.474;2022-08-23T08:25:37;0.20;;;0.20;;
60492;SDS011;46341;51.290;-2.474;2022-08-23T08:28:03;0.20;;;0.20;;
60492;SDS011;46341;51.290;-2.474;2022-08-23T08:30:29;0.20;;;0.10;;
60492;SDS011;46341;51.290;-2.474;2022-08-23T08:32:56;0.33;;;0.33;;
60492;SDS011;46341;51.290;-2.474;2022-08-23T08:35:22;0.75;;;0.20;;
60492;SDS011;46341;51.290;-2.474;2022-08-23T08:37:49;0.40;;;0.40;;
60492;SDS011;46341;51.290;-2.474;2022-08-23T08:40:18;0.40;;;0.40;;
60492;SDS011;46341;51.290;-2.474;2022-08-23T08:45:17;2.50;;;0.50;;
60492;SDS011;46341;51.290;-2.474;2022-08-23T08:50:18;0.93;;;0.90;;
60492;SDS011;46341;51.290;-2.474;2022-08-23T08:57:46;0.22;;;0.22;;
60492;SDS011;46341;51.290;-2.474;2022-08-23T09:02:40;1.33;;;1.10;;
60492;SDS011;46341;51.290;-2.474;2022-08-23T09:05:30;1.20;;;0.90;;
60492;SDS011;46341;51.290;-2.474;2022-08-23T09:08:12;1.17;;;1.17;;
60492;SDS011;46341;51.290;-2.474;2022-08-23T09:11:00;0.80;;;0.80;;
60492;SDS011;46341;51.290;-2.474;2022-08-23T09:18:45;1.02;;;1.00;;
60492;SDS011;46341;51.290;-2.474;2022-08-23T09:21:11;1.23;;;1.13;;
60492;SDS011;46341;51.290;-2.474;2022-08-23T09:23:44;1.08;;;1.08;;
60492;SDS011;46341;51.290;-2.474;2022-08-23T09:26:19;1.38;;;1.08;;
60492;SDS011;46341;51.290;-2.474;2022-08-23T09:28:48;0.95;;;0.70;;
60492;SDS011;46341;51.290;-2.474;2022-08-23T09:31:35;0.80;;;0.70;;
60492;SDS011;46341;51.290;-2.474;2022-08-23T09:34:02;0.82;;;0.75;;
60492;SDS011;46341;51.290;-2.474;2022-08-23T09:36:33;0.60;;;0.60;;
60492;SDS011;46341;51.290;-2.474;2022-08-23T09:39:02;0.70;;;0.70;;
60492;SDS011;46341;51.290;-2.474;2022-08-23T09:41:33;0.65;;;0.52;;
60492;SDS011;46341;51.290;-2.474;2022-08-23T09:44:03;1.05;;;1.05;;
60492;SDS011;46341;51.290;-2.474;2022-08-23T09:46:31;2.30;;;2.10;;
60492;SDS011;46341;51.290;-2.474;2022-08-23T09:51:46;1.23;;;1.23;;
60492;SDS011;46341;51.290;-2.474;2022-08-23T09:56:52;1.10;;;1.10;;
60492;SDS011;46341;51.290;-2.474;2022-08-23T10:01:53;0.80;;;0.80;;
60492;SDS011;46341;51.290;-2.474;2022-08-23T10:06:50;1.88;;;0.80;;
60492;SDS011;46341;51.290;-2.474;2022-08-23T10:09:23;1.30;;;0.77;;
60492;SDS011;46341;51.290;-2.474;2022-08-23T10:11:50;0.73;;;0.73;;
60492;SDS011;46341;51.290;-2.474;2022-08-23T10:14:19;0.50;;;0.50;;
60492;SDS011;46341;51.290;-2.474;2022-08-23T10:26:49;0.47;;;0.20;;
60492;SDS011;46341;51.290;-2.474;2022-08-23T10:29:21;1.20;;;0.40;;
60492;SDS011;46341;51.290;-2.474;2022-08-23T10:39:51;0.75;;;0.25;;
60492;SDS011;46341;51.290;-2.474;2022-08-23T10:45:20;0.32;;;0.20;;
60492;SDS011;46341;51.290;-2.474;2022-08-23T10:47:46;0.40;;;0.40;;
60492;SDS011;46341;51.290;-2.474;2022-08-23T10:50:16;0.30;;;0.30;;
60492;SDS011;46341;51.290;-2.474;2022-08-23T10:53:08;0.40;;;0.40;;
60492;SDS011;46341;51.290;-2.474;2022-08-23T10:58:21;0.50;;;0.50;;
60492;SDS011;46341;51.290;-2.474;2022-08-23T11:00:48;0.40;;;0.40;;
60492;SDS011;46341;51.290;-2.474;2022-08-23T11:08:35;0.98;;;0.30;;
60492;SDS011;46341;51.290;-2.474;2022-08-23T11:13:58;0.65;;;0.30;;
60492;SDS011;46341;51.290;-2.474;2022-08-23T11:16:28;0.40;;;0.35;;
60492;SDS011;46341;51.290;-2.474;2022-08-23T11:18:55;0.38;;;0.30;;
60492;SDS011;46341;51.290;-2.474;2022-08-23T11:28:48;1.17;;;0.73;;
60492;SDS011;46341;51.290;-2.474;2022-08-23T11:31:24;0.40;;;0.40;;
60492;SDS011;46341;51.290;-2.474;2022-08-23T11:33:58;0.40;;;0.40;;
60492;SDS011;46341;51.290;-2.474;2022-08-23T11:36:25;0.85;;;0.40;;
60492;SDS011;46341;51.290;-2.474;2022-08-23T11:41:28;0.50;;;0.50;;
60492;SDS011;46341;51.290;-2.474;2022-08-23T11:59:40;1.10;;;0.52;;
60492;SDS011;46341;51.290;-2.474;2022-08-23T12:04:58;0.70;;;0.40;;
60492;SDS011;46341;51.290;-2.474;2022-08-23T12:10:16;0.50;;;0.50;;
60492;SDS011;46341;51.290;-2.474;2022-08-23T12:12:52;0.90;;;0.40;;
60492;SDS011;46341;51.290;-2.474;2022-08-23T12:18:28;0.30;;;0.30;;
60492;SDS011;46341;51.290;-2.474;2022-08-23T12:20:56;0.30;;;0.30;;
60492;SDS011;46341;51.290;-2.474;2022-08-23T12:23:23;0.85;;;0.60;;
60492;SDS011;46341;51.290;-2.474;2022-08-23T12:25:57;1.02;;;0.68;;
60492;SDS011;46341;51.290;-2.474;2022-08-23T12:28:46;0.60;;;0.60;;
60492;SDS011;46341;51.290;-2.474;2022-08-23T12:41:55;0.40;;;0.40;;
60492;SDS011;46341;51.290;-2.474;2022-08-23T12:44:26;0.40;;;0.40;;
60492;SDS011;46341;51.290;-2.474;2022-08-23T12:46:52;1.15;;;0.70;;
60492;SDS011;46341;51.290;-2.474;2022-08-23T12:54:15;0.85;;;0.50;;
60492;SDS011;46341;51.290;-2.474;2022-08-23T12:56:46;0.65;;;0.60;;
60492;SDS011;46341;51.290;-2.474;2022-08-23T13:01:52;0.38;;;0.30;;
60492;SDS011;46341;51.290;-2.474;2022-08-23T13:04:19;0.45;;;0.40;;
60492;SDS011;46341;51.290;-2.474;2022-08-23T13:06:47;1.63;;;0.45;;
60492;SDS011;46341;51.290;-2.474;2022-08-23T13:11:42;1.33;;;0.60;;
60492;SDS011;46341;51.290;-2.474;2022-08-23T13:16:49;1.38;;;0.60;;
60492;SDS011;46341;51.290;-2.474;2022-08-23T13:19:17;0.50;;;0.50;;
60492;SDS011;46341;51.290;-2.474;2022-08-23T13:21:44;0.85;;;0.73;;
60492;SDS011;46341;51.290;-2.474;2022-08-23T13:33:56;0.88;;;0.45;;
60492;SDS011;46341;51.290;-2.474;2022-08-23T13:36:22;0.70;;;0.50;;
60492;SDS011;46341;51.290;-2.474;2022-08-23T13:41:27;0.60;;;0.60;;
60492;SDS011;46341;51.290;-2.474;2022-08-23T13:43:54;0.70;;;0.70;;
60492;SDS011;46341;51.290;-2.474;2022-08-23T13:46:22;0.65;;;0.63;;
60492;SDS011;46341;51.290;-2.474;2022-08-23T13:51:22;0.80;;;0.80;;
60492;SDS011;46341;51.290;-2.474;2022-08-23T13:53:49;0.77;;;0.70;;
60492;SDS011;46341;51.290;-2.474;2022-08-23T14:10:53;0.63;;;0.50;;
60492;SDS011;46341;51.290;-2.474;2022-08-23T14:15:48;0.63;;;0.63;;
60492;SDS011;46341;51.290;-2.474;2022-08-23T14:18:24;0.43;;;0.43;;
60492;SDS011;46341;51.290;-2.474;2022-08-23T14:20:50;0.60;;;0.60;;
60492;SDS011;46341;51.290;-2.474;2022-08-23T14:23:17;1.48;;;0.70;;
60492;SDS011;46341;51.290;-2.474;2022-08-23T14:25:44;0.63;;;0.63;;
60492;SDS011;46341;51.290;-2.474;2022-08-23T14:30:37;1.58;;;0.80;;
60492;SDS011;46341;51.290;-2.474;2022-08-23T14:33:04;0.68;;;0.60;;
60492;SDS011;46341;51.290;-2.474;2022-08-23T14:35:31;1.73;;;0.65;;
60492;SDS011;46341;51.290;-2.474;2022-08-23T14:37:58;0.77;;;0.70;;
60492;SDS011;46341;51.290;-2.474;2022-08-23T14:40:29;1.52;;;0.88;;
60492;SDS011;46341;51.290;-2.474;2022-08-23T14:42:55;1.20;;;0.88;;
60492;SDS011;46341;51.290;-2.474;2022-08-23T14:45:22;1.83;;;0.90;;
60492;SDS011;46341;51.290;-2.474;2022-08-23T14:47:48;1.55;;;0.85;;
60492;SDS011;46341;51.290;-2.474;2022-08-23T14:50:15;0.75;;;0.75;;
60492;SDS011;46341;51.290;-2.474;2022-08-23T14:52:42;0.90;;;0.50;;
60492;SDS011;46341;51.290;-2.474;2022-08-23T14:55:11;1.38;;;0.75;;
60492;SDS011;46341;51.290;-2.474;2022-08-23T14:57:38;1.10;;;0.75;;
60492;SDS011;46341;51.290;-2.474;2022-08-23T15:00:05;1.40;;;0.60;;
60492;SDS011;46341;51.290;-2.474;2022-08-23T15:02:32;1.42;;;0.68;;
60492;SDS011;46341;51.290;-2.474;2022-08-23T15:05:02;0.80;;;0.80;;
60492;SDS011;46341;51.290;-2.474;2022-08-23T15:09:55;0.75;;;0.70;;
60492;SDS011;46341;51.290;-2.474;2022-08-23T15:12:21;1.85;;;0.93;;
60492;SDS011;46341;51.290;-2.474;2022-08-23T15:15:12;1.00;;;0.70;;
60492;SDS011;46341;51.290;-2.474;2022-08-23T15:17:44;0.70;;;0.70;;
60492;SDS011;46341;51.290;-2.474;2022-08-23T15:20:12;1.15;;;0.75;;
60492;SDS011;46341;51.290;-2.474;2022-08-23T15:22:39;0.75;;;0.63;;
60492;SDS011;46341;51.290;-2.474;2022-08-23T15:25:10;1.45;;;0.77;;
60492;SDS011;46341;51.290;-2.474;2022-08-23T15:27:37;0.82;;;0.80;;
60492;SDS011;46341;51.290;-2.474;2022-08-23T15:30:03;1.40;;;0.88;;
60492;SDS011;46341;51.290;-2.474;2022-08-23T15:32:30;1.10;;;0.80;;
60492;SDS011;46341;51.290;-2.474;2022-08-23T15:34:58;1.20;;;0.60;;
60492;SDS011;46341;51.290;-2.474;2022-08-23T15:37:24;0.75;;;0.65;;
60492;SDS011;46341;51.290;-2.474;2022-08-23T15:39:51;0.55;;;0.55;;
60492;SDS011;46341;51.290;-2.474;2022-08-23T15:42:17;1.55;;;0.88;;
60492;SDS011;46341;51.290;-2.474;2022-08-23T15:44:46;1.50;;;0.90;;
60492;SDS011;46341;51.290;-2.474;2022-08-23T15:47:13;0.85;;;0.75;;
60492;SDS011;46341;51.290;-2.474;2022-08-23T15:49:42;1.05;;;0.60;;
60492;SDS011;46341;51.290;-2.474;2022-08-23T15:52:09;1.15;;;0.70;;
60492;SDS011;46341;51.290;-2.474;2022-08-23T15:54:35;1.35;;;0.80;;
60492;SDS011;46341;51.290;-2.474;2022-08-23T15:57:02;1.48;;;1.20;;
60492;SDS011;46341;51.290;-2.474;2022-08-23T15:59:29;0.80;;;0.80;;
60492;SDS011;46341;51.290;-2.474;2022-08-23T16:04:23;1.33;;;0.88;;
60492;SDS011;46341;51.290;-2.474;2022-08-23T16:06:49;1.02;;;0.80;;
60492;SDS011;46341;51.290;-2.474;2022-08-23T16:09:18;1.00;;;1.00;;
60492;SDS011;46341;51.290;-2.474;2022-08-23T16:11:44;1.67;;;0.50;;
60492;SDS011;46341;51.290;-2.474;2022-08-23T16:14:11;0.93;;;0.52;;
60492;SDS011;46341;51.290;-2.474;2022-08-23T16:16:38;2.67;;;0.90;;
60492;SDS011;46341;51.290;-2.474;2022-08-23T16:21:33;0.60;;;0.47;;
60492;SDS011;46341;51.290;-2.474;2022-08-23T16:23:59;0.55;;;0.30;;
60492;SDS011;46341;51.290;-2.474;2022-08-23T16:26:27;0.20;;;0.20;;
60492;SDS011;46341;51.290;-2.474;2022-08-23T16:29:01;0.75;;;0.40;;
60492;SDS011;46341;51.290;-2.474;2022-08-23T16:31:28;0.82;;;0.30;;
60492;SDS011;46341;51.290;-2.474;2022-08-23T16:34:05;0.20;;;0.20;;
60492;SDS011;46341;51.290;-2.474;2022-08-23T16:36:33;0.40;;;0.40;;
60492;SDS011;46341;51.290;-2.474;2022-08-23T16:38:59;0.90;;;0.60;;
60492;SDS011;46341;51.290;-2.474;2022-08-23T16:41:26;0.32;;;0.30;;
60492;SDS011;46341;51.290;-2.474;2022-08-23T16:43:52;0.25;;;0.25;;
60492;SDS011;46341;51.290;-2.474;2022-08-23T16:46:19;0.38;;;0.30;;
60492;SDS011;46341;51.290;-2.474;2022-08-23T16:48:47;0.68;;;0.20;;
60492;SDS011;46341;51.290;-2.474;2022-08-23T16:51:13;0.45;;;0.20;;
60492;SDS011;46341;51.290;-2.474;2022-08-23T16:53:40;0.70;;;0.30;;
60492;SDS011;46341;51.290;-2.474;2022-08-23T16:56:09;1.20;;;0.50;;
60492;SDS011;46341;51.290;-2.474;2022-08-23T16:58:36;1.50;;;0.50;;
60492;SDS011;46341;51.290;-2.474;2022-08-23T17:01:03;2.58;;;0.90;;
60492;SDS011;46341;51.290;-2.474;2022-08-23T17:03:29;1.45;;;1.00;;
60492;SDS011;46341;51.290;-2.474;2022-08-23T17:05:56;0.73;;;0.60;;
60492;SDS011;46341;51.290;-2.474;2022-08-23T17:08:22;1.52;;;0.75;;
60492;SDS011;46341;51.290;-2.474;2022-08-23T17:10:49;5.60;;;1.58;;
60492;SDS011;46341;51.290;-2.474;2022-08-23T17:13:15;1.15;;;0.90;;
60492;SDS011;46341;51.290;-2.474;2022-08-23T17:15:42;1.75;;;1.00;;
60492;SDS011;46341;51.290;-2.474;2022-08-23T17:18:08;0.50;;;0.50;;
60492;SDS011;46341;51.290;-2.474;2022-08-23T17:20:36;2.22;;;1.58;;
60492;SDS011;46341;51.290;-2.474;2022-08-23T17:23:03;1.13;;;0.55;;
60492;SDS011;46341;51.290;-2.474;2022-08-23T17:25:31;0.85;;;0.75;;
60492;SDS011;46341;51.290;-2.474;2022-08-23T17:27:57;1.52;;;0.60;;
60492;SDS011;46341;51.290;-2.474;2022-08-23T17:30:24;1.70;;;0.95;;
60492;SDS011;46341;51.290;-2.474;2022-08-23T17:32:51;0.93;;;0.75;;
60492;SDS011;46341;51.290;-2.474;2022-08-23T17:35:19;2.80;;;0.80;;
60492;SDS011;46341;51.290;-2.474;2022-08-23T17:37:46;3.13;;;1.00;;
60492;SDS011;46341;51.290;-2.474;2022-08-23T17:40:15;1.75;;;0.90;;
60492;SDS011;46341;51.290;-2.474;2022-08-23T17:42:46;0.50;;;0.50;;